Latest Weather Observations for Port Kembla Harbour

IDN60801

Issued at 11:35 pm EDT Friday 31 October 2014 (issued every 30 minutes, with the page automatically refreshed every 10 minutes)

About weather observations | Map of weather stations | Latest weather observations for NSW | Other Formats
Station Details ID: 068253 Name: PORT KEMBLA NTC AWS Lat: -34.47 Lon: 150.91 Height: 0.0 m
Data from the previous 72 hours. | See also: Recent months for locations in New South Wales
Date/Time
EDT
Temp
°C
App
Temp
°C
Dew
Point
Rel
Hum
%
Delta-T
°C
Wind Press
QNH
hPa
Press
MSL
hPa
Rain
since 9 am
mm
Dir
 
Spd
km/h
Gust
km/h
Spd
kts
Gust
kts
31/11:30pm 20.4 - - - - NNE 9 13 5 7 1005.9 1005.9 -
31/11:00pm 20.3 - - - - N 6 9 3 5 1006.2 1006.2 -
31/10:30pm 20.4 - - - - NNE 6 9 3 5 1006.6 1006.6 -
31/10:00pm 20.4 - - - - NE 7 11 4 6 1007.0 1007.0 -
31/09:30pm 20.5 - - - - NNE 7 9 4 5 1007.2 1007.2 -
31/09:00pm 20.7 - - - - NE 11 15 6 8 1007.0 1007.0 -
31/08:30pm 20.7 - - - - NNE 7 9 4 5 1006.9 1006.9 -
31/08:00pm 20.8 - - - - N 13 17 7 9 1006.7 1006.7 -
31/07:30pm 21.1 - - - - NNE 9 13 5 7 1006.6 1006.6 -
31/07:00pm 21.6 - - - - NNE 11 17 6 9 1006.5 1006.5 -
31/06:30pm 22.1 - - - - NNE 13 20 7 11 1006.4 1006.4 -
31/06:00pm 21.9 - - - - N 9 19 5 10 1006.2 1006.2 -
31/05:30pm 21.5 - - - - N 15 22 8 12 1006.3 1006.3 -
31/05:00pm 21.9 - - - - N 15 30 8 16 1006.2 1006.2 -
31/04:30pm 21.6 - - - - NNE 11 20 6 11 1006.3 1006.3 -
31/04:00pm 21.4 - - - - NNE 13 19 7 10 1006.7 1006.7 -
31/03:30pm 21.4 - - - - N 9 15 5 8 1006.8 1006.8 -
31/03:00pm 21.1 - - - - NNE 9 15 5 8 1007.5 1007.5 -
31/02:30pm 20.8 - - - - NNE 11 15 6 8 1008.1 1008.1 -
31/02:00pm 20.6 - - - - NNE 11 17 6 9 1008.7 1008.7 -
31/01:30pm 20.6 - - - - NE 11 20 6 11 1009.2 1009.2 -
31/01:00pm 20.7 - - - - NE 9 13 5 7 1009.7 1009.7 -
31/12:30pm 20.3 - - - - ENE 9 15 5 8 1010.2 1010.2 -
31/12:00pm 20.1 - - - - E 9 13 5 7 1010.9 1010.9 -
31/11:30am 20.0 - - - - ENE 7 11 4 6 1011.5 1011.5 -
31/11:00am 19.6 - - - - E 7 11 4 6 1012.0 1012.0 -
31/10:30am 19.6 - - - - E 6 9 3 5 1012.4 1012.4 -
31/10:00am 19.2 - - - - E 6 9 3 5 1012.6 1012.6 -
31/09:30am 19.1 - - - - E 6 7 3 4 1012.6 1012.6 -
31/09:00am 18.9 - - - - E 4 7 2 4 1012.8 1012.8 -
31/08:30am 18.9 - - - - E 4 6 2 3 1012.6 1012.6 -
31/08:00am 19.1 - - - - E 2 4 1 2 1012.4 1012.4 -
31/07:30am 18.3 - - - - SW 2 2 1 1 1012.3 1012.3 -
31/07:00am 17.5 - - - - SSW 4 6 2 3 1012.4 1012.4 -
31/06:30am 16.7 - - - - SW 2 4 1 2 1012.4 1012.4 -
31/06:00am 16.8 - - - - SSW 4 6 2 3 1012.2 1012.2 -
31/05:30am 17.0 - - - - S 2 2 1 1 1012.0 1012.0 -
31/05:00am 16.8 - - - - WSW 6 7 3 4 1011.9 1011.9 -
31/04:30am 16.9 - - - - WSW 6 6 3 3 1012.0 1012.0 -
31/04:00am 17.1 - - - - W 6 7 3 4 1012.2 1012.2 -
31/03:30am 17.7 - - - - SW 6 9 3 5 1012.3 1012.3 -
31/03:00am 17.0 - - - - WSW 6 7 3 4 1012.4 1012.4 -
31/02:30am 17.0 - - - - WSW 4 6 2 3 1012.5 1012.5 -
31/02:00am 17.8 - - - - W 6 7 3 4 1012.7 1012.7 -
31/01:30am 18.2 - - - - WSW 6 7 3 4 1013.0 1013.0 -
31/01:00am 19.1 - - - - S 4 9 2 5 1013.2 1013.2 -
31/12:30am 18.4 - - - - SW 9 11 5 6 1013.4 1013.4 -
31/12:00am 18.8 - - - - SW 7 9 4 5 1013.5 1013.5 -
 
Date/Time
EDT
Temp
°C
App
Temp
°C
Dew
Point
Rel
Hum
%
Delta-T
°C
Wind Press
QNH
hPa
Press
MSL
hPa
Rain
since 9 am
mm
Dir
 
Spd
km/h
Gust
km/h
Spd
kts
Gust
kts
30/11:30pm 19.0 - - - - SW 6 7 3 4 1013.3 1013.3 -
30/11:00pm 19.2 - - - - SSW 4 6 2 3 1013.4 1013.4 -
30/10:30pm 19.7 - - - - WNW 2 6 1 3 1013.4 1013.4 -
30/10:00pm 19.7 - - - - N 7 11 4 6 1013.2 1013.2 -
30/09:30pm 19.9 - - - - N 7 11 4 6 1013.1 1013.1 -
30/09:00pm 20.1 - - - - NNE 9 11 5 6 1013.0 1013.0 -
30/08:30pm 20.6 - - - - NNE 13 15 7 8 1012.7 1012.7 -
30/08:00pm 20.6 - - - - NNE 13 17 7 9 1012.4 1012.4 -
30/07:30pm 20.9 - - - - N 13 17 7 9 1012.0 1012.0 -
30/07:00pm 21.3 - - - - NNE 7 11 4 6 1011.7 1011.7 -
30/06:30pm 21.4 - - - - N 7 9 4 5 1011.4 1011.4 -
30/06:00pm 22.1 - - - - N 4 6 2 3 1011.2 1011.2 -
30/05:30pm 21.7 - - - - NE 2 4 1 2 1011.0 1011.0 -
30/05:00pm 22.1 - - - - N 2 4 1 2 1010.9 1010.9 -
30/04:30pm 21.5 - - - - ENE 4 7 2 4 1010.8 1010.8 -
30/04:00pm 21.2 - - - - NE 6 9 3 5 1010.8 1010.8 -
30/03:30pm 21.5 - - - - NNE 7 11 4 6 1011.0 1011.0 -
30/03:00pm 21.2 - - - - NNE 9 13 5 7 1011.0 1011.0 -
30/02:30pm 21.5 - - - - ENE 11 19 6 10 1011.3 1011.3 -
30/02:00pm 21.4 - - - - ENE 13 19 7 10 1011.6 1011.6 -
30/01:30pm 21.5 - - - - ENE 13 20 7 11 1012.0 1012.0 -
30/01:00pm 22.3 - - - - ENE 13 20 7 11 1012.1 1012.1 -
30/12:30pm 21.4 - - - - NE 15 20 8 11 1012.3 1012.3 -
30/12:00pm 21.0 - - - - NE 13 19 7 10 1012.9 1012.9 -
30/11:30am 20.8 - - - - NE 11 19 6 10 1013.1 1013.1 -
30/11:00am 20.3 - - - - NE 13 19 7 10 1013.6 1013.6 -
30/10:30am 20.5 - - - - NE 11 15 6 8 1013.8 1013.8 -
30/10:00am 19.4 - - - - NE 11 17 6 9 1013.9 1013.9 -
30/09:30am 19.6 - - - - NE 6 11 3 6 1014.2 1014.2 -
30/09:00am 19.5 - - - - NNE 6 7 3 4 1014.3 1014.3 -
30/08:30am 18.8 - - - - NE 7 9 4 5 1014.5 1014.5 -
30/08:00am 19.4 - - - - NNE 2 4 1 2 1014.5 1014.5 -
30/07:30am 19.3 - - - - N 4 6 2 3 1014.4 1014.4 -
30/07:00am 18.2 - - - - N 2 6 1 3 1014.3 1014.3 -
30/06:30am 17.5 - - - - N 7 11 4 6 1014.0 1014.0 -
30/06:00am 17.4 - - - - N 9 13 5 7 1014.0 1014.0 -
30/05:30am 17.5 - - - - NW 7 11 4 6 1014.1 1014.1 -
30/05:00am 17.7 - - - - N 9 13 5 7 1014.0 1014.0 -
30/04:30am 17.8 - - - - N 9 17 5 9 1013.9 1013.9 -
30/04:00am 17.8 - - - - N 13 17 7 9 1014.1 1014.1 -
30/03:30am 18.0 - - - - N 13 17 7 9 1014.3 1014.3 -
30/03:00am 18.2 - - - - N 11 17 6 9 1014.6 1014.6 -
30/02:30am 18.3 - - - - NNE 19 26 10 14 1014.9 1014.9 -
30/02:00am 18.6 - - - - N 20 26 11 14 1015.1 1015.1 -
30/01:30am 18.7 - - - - N 20 26 11 14 1015.3 1015.3 -
30/01:00am 18.7 - - - - NNE 17 20 9 11 1015.6 1015.6 -
30/12:30am 18.7 - - - - NNE 15 19 8 10 1015.9 1015.9 -
30/12:00am 18.7 - - - - NNE 15 22 8 12 1016.2 1016.2 -
 
Date/Time
EDT
Temp
°C
App
Temp
°C
Dew
Point
Rel
Hum
%
Delta-T
°C
Wind Press
QNH
hPa
Press
MSL
hPa
Rain
since 9 am
mm
Dir
 
Spd
km/h
Gust
km/h
Spd
kts
Gust
kts
29/11:30pm 18.6 - - - - N 17 20 9 11 1016.3 1016.3 -
29/11:00pm 18.6 - - - - NNE 19 24 10 13 1016.4 1016.4 -
29/10:30pm 18.8 - - - - NNE 15 20 8 11 1016.3 1016.3 -
29/10:00pm 18.8 - - - - NNE 17 24 9 13 1016.2 1016.2 -
29/09:30pm 18.9 - - - - NNE 22 28 12 15 1016.4 1016.4 -
29/09:00pm 18.8 - - - - NE 20 28 11 15 1016.4 1016.4 -
29/08:30pm 18.8 - - - - NE 20 26 11 14 1016.2 1016.2 -
29/08:00pm 18.7 - - - - NE 19 24 10 13 1016.1 1016.1 -
29/07:30pm 18.5 - - - - NE 19 26 10 14 1015.8 1015.8 -
29/07:00pm 18.5 - - - - NE 19 26 10 14 1015.5 1015.5 -
29/06:30pm 18.5 - - - - NE 20 26 11 14 1015.4 1015.4 -
29/06:00pm 18.5 - - - - NE 19 26 10 14 1015.1 1015.1 -
29/05:30pm 18.5 - - - - NE 19 24 10 13 1015.1 1015.1 -
29/05:00pm 18.6 - - - - ENE 17 28 9 15 1015.0 1015.0 -
29/04:30pm 18.7 - - - - ENE 17 24 9 13 1015.0 1015.0 -
29/04:00pm 18.7 - - - - ENE 17 26 9 14 1015.3 1015.3 -
29/03:30pm 18.7 - - - - ENE 17 28 9 15 1015.5 1015.5 -
29/03:00pm 18.5 - - - - ENE 17 26 9 14 1015.7 1015.7 -
29/02:30pm 18.6 - - - - ENE 17 26 9 14 1015.9 1015.9 -
29/02:00pm 18.5 - - - - ENE 17 24 9 13 1016.1 1016.1 -
29/01:30pm 18.5 - - - - ENE 17 22 9 12 1016.4 1016.4 -
29/01:00pm 18.6 - - - - E 15 22 8 12 1016.5 1016.5 -
29/12:30pm 18.8 - - - - E 13 20 7 11 1016.7 1016.7 -
29/12:00pm 18.6 - - - - ESE 13 20 7 11 1017.0 1017.0 -
29/11:30am 19.0 - - - - E 11 19 6 10 1017.2 1017.2 -
29/11:00am 18.8 - - - - E 9 15 5 8 1017.4 1017.4 -

Other Formats:

Comma delimited format used in spreadsheet applications
http://www.bom.gov.au/fwo/IDN60801/IDN60801.95745.axf

JavaScript Object Notation format (JSON) in row-major order
http://www.bom.gov.au/fwo/IDN60801/IDN60801.95745.json